sensor_id;sensor_type;location;lat;lon;timestamp;P1;durP1;ratioP1;P2;durP2;ratioP2
79464;SDS011;68932;47.410;8.232;2023-08-24T00:00:52;4.70;;;3.90;;
79464;SDS011;68932;47.410;8.232;2023-08-24T00:03:20;6.20;;;4.00;;
79464;SDS011;68932;47.410;8.232;2023-08-24T00:05:48;6.60;;;4.50;;
79464;SDS011;68932;47.410;8.232;2023-08-24T00:08:17;6.00;;;4.30;;
79464;SDS011;68932;47.410;8.232;2023-08-24T00:10:45;4.80;;;4.20;;
79464;SDS011;68932;47.410;8.232;2023-08-24T00:13:13;5.90;;;3.80;;
79464;SDS011;68932;47.410;8.232;2023-08-24T00:15:42;5.60;;;4.20;;
79464;SDS011;68932;47.410;8.232;2023-08-24T00:18:11;4.90;;;4.40;;
79464;SDS011;68932;47.410;8.232;2023-08-24T00:20:39;5.60;;;4.00;;
79464;SDS011;68932;47.410;8.232;2023-08-24T00:23:07;6.40;;;4.00;;
79464;SDS011;68932;47.410;8.232;2023-08-24T00:25:35;4.60;;;4.00;;
79464;SDS011;68932;47.410;8.232;2023-08-24T00:28:04;8.80;;;4.40;;
79464;SDS011;68932;47.410;8.232;2023-08-24T00:30:33;5.60;;;4.30;;
79464;SDS011;68932;47.410;8.232;2023-08-24T00:33:01;7.20;;;4.30;;
79464;SDS011;68932;47.410;8.232;2023-08-24T00:35:29;5.50;;;4.30;;
79464;SDS011;68932;47.410;8.232;2023-08-24T00:37:58;4.80;;;4.30;;
79464;SDS011;68932;47.410;8.232;2023-08-24T00:40:26;7.30;;;3.90;;
79464;SDS011;68932;47.410;8.232;2023-08-24T00:42:54;6.50;;;4.20;;
79464;SDS011;68932;47.410;8.232;2023-08-24T00:45:22;5.90;;;4.10;;
79464;SDS011;68932;47.410;8.232;2023-08-24T00:47:51;5.20;;;4.40;;
79464;SDS011;68932;47.410;8.232;2023-08-24T00:50:20;7.40;;;4.30;;
79464;SDS011;68932;47.410;8.232;2023-08-24T00:52:48;5.70;;;4.30;;
79464;SDS011;68932;47.410;8.232;2023-08-24T00:55:17;7.10;;;4.80;;
79464;SDS011;68932;47.410;8.232;2023-08-24T00:57:46;5.20;;;3.70;;
79464;SDS011;68932;47.410;8.232;2023-08-24T01:00:16;7.00;;;4.10;;
79464;SDS011;68932;47.410;8.232;2023-08-24T01:02:45;5.40;;;4.10;;
79464;SDS011;68932;47.410;8.232;2023-08-24T01:05:13;5.80;;;4.40;;
79464;SDS011;68932;47.410;8.232;2023-08-24T01:07:41;5.10;;;4.20;;
79464;SDS011;68932;47.410;8.232;2023-08-24T01:10:10;5.20;;;4.40;;
79464;SDS011;68932;47.410;8.232;2023-08-24T01:12:45;6.20;;;4.70;;
79464;SDS011;68932;47.410;8.232;2023-08-24T01:15:25;5.50;;;4.20;;
79464;SDS011;68932;47.410;8.232;2023-08-24T01:18:00;6.70;;;4.40;;
79464;SDS011;68932;47.410;8.232;2023-08-24T01:20:31;5.30;;;4.60;;
79464;SDS011;68932;47.410;8.232;2023-08-24T01:23:03;6.80;;;4.70;;
79464;SDS011;68932;47.410;8.232;2023-08-24T01:25:37;6.10;;;4.40;;
79464;SDS011;68932;47.410;8.232;2023-08-24T01:28:08;5.10;;;4.20;;
79464;SDS011;68932;47.410;8.232;2023-08-24T01:30:39;6.80;;;4.70;;
79464;SDS011;68932;47.410;8.232;2023-08-24T01:33:09;7.20;;;4.40;;
79464;SDS011;68932;47.410;8.232;2023-08-24T01:35:37;6.30;;;4.40;;
79464;SDS011;68932;47.410;8.232;2023-08-24T01:38:06;5.80;;;4.30;;
79464;SDS011;68932;47.410;8.232;2023-08-24T01:40:36;7.50;;;4.50;;
79464;SDS011;68932;47.410;8.232;2023-08-24T01:45:40;4.40;;;3.90;;
79464;SDS011;68932;47.410;8.232;2023-08-24T01:48:10;4.80;;;3.70;;
79464;SDS011;68932;47.410;8.232;2023-08-24T01:50:39;8.10;;;4.40;;
79464;SDS011;68932;47.410;8.232;2023-08-24T01:53:09;6.30;;;4.30;;
79464;SDS011;68932;47.410;8.232;2023-08-24T01:55:37;7.30;;;4.40;;
79464;SDS011;68932;47.410;8.232;2023-08-24T01:58:06;7.40;;;4.30;;
79464;SDS011;68932;47.410;8.232;2023-08-24T02:00:34;6.70;;;4.10;;
79464;SDS011;68932;47.410;8.232;2023-08-24T02:03:04;5.70;;;3.90;;
79464;SDS011;68932;47.410;8.232;2023-08-24T02:05:32;5.20;;;4.70;;
79464;SDS011;68932;47.410;8.232;2023-08-24T02:08:01;7.00;;;4.60;;
79464;SDS011;68932;47.410;8.232;2023-08-24T02:10:30;4.60;;;4.10;;
79464;SDS011;68932;47.410;8.232;2023-08-24T02:12:58;6.00;;;4.20;;
79464;SDS011;68932;47.410;8.232;2023-08-24T02:15:26;5.50;;;4.70;;
79464;SDS011;68932;47.410;8.232;2023-08-24T02:17:54;5.10;;;4.40;;
79464;SDS011;68932;47.410;8.232;2023-08-24T02:20:23;5.00;;;4.00;;
79464;SDS011;68932;47.410;8.232;2023-08-24T02:22:51;7.60;;;4.20;;
79464;SDS011;68932;47.410;8.232;2023-08-24T02:25:20;6.10;;;4.40;;
79464;SDS011;68932;47.410;8.232;2023-08-24T02:27:48;5.80;;;5.10;;
79464;SDS011;68932;47.410;8.232;2023-08-24T02:30:16;5.70;;;4.60;;
79464;SDS011;68932;47.410;8.232;2023-08-24T02:32:45;6.00;;;4.30;;
79464;SDS011;68932;47.410;8.232;2023-08-24T02:35:13;5.90;;;4.60;;
79464;SDS011;68932;47.410;8.232;2023-08-24T02:37:42;6.20;;;4.60;;
79464;SDS011;68932;47.410;8.232;2023-08-24T02:40:11;5.00;;;4.40;;
79464;SDS011;68932;47.410;8.232;2023-08-24T02:42:39;6.90;;;4.30;;
79464;SDS011;68932;47.410;8.232;2023-08-24T02:45:08;5.80;;;5.20;;
79464;SDS011;68932;47.410;8.232;2023-08-24T02:47:37;5.50;;;4.90;;
79464;SDS011;68932;47.410;8.232;2023-08-24T02:50:06;5.30;;;4.40;;
79464;SDS011;68932;47.410;8.232;2023-08-24T02:52:35;4.90;;;4.30;;
79464;SDS011;68932;47.410;8.232;2023-08-24T02:55:04;5.30;;;4.60;;
79464;SDS011;68932;47.410;8.232;2023-08-24T02:57:35;5.80;;;4.60;;
79464;SDS011;68932;47.410;8.232;2023-08-24T03:00:04;10.40;;;5.10;;
79464;SDS011;68932;47.410;8.232;2023-08-24T03:02:34;7.50;;;4.50;;
79464;SDS011;68932;47.410;8.232;2023-08-24T03:05:02;6.30;;;4.50;;
79464;SDS011;68932;47.410;8.232;2023-08-24T03:07:31;8.40;;;5.40;;
79464;SDS011;68932;47.410;8.232;2023-08-24T03:10:00;6.30;;;5.10;;
79464;SDS011;68932;47.410;8.232;2023-08-24T03:12:28;7.30;;;5.00;;
79464;SDS011;68932;47.410;8.232;2023-08-24T03:14:56;6.30;;;4.50;;
79464;SDS011;68932;47.410;8.232;2023-08-24T03:17:25;5.80;;;5.00;;
79464;SDS011;68932;47.410;8.232;2023-08-24T03:19:53;8.00;;;5.20;;
79464;SDS011;68932;47.410;8.232;2023-08-24T03:22:21;5.20;;;4.70;;
79464;SDS011;68932;47.410;8.232;2023-08-24T03:24:49;5.50;;;4.60;;
79464;SDS011;68932;47.410;8.232;2023-08-24T03:27:17;6.80;;;5.00;;
79464;SDS011;68932;47.410;8.232;2023-08-24T03:29:46;8.00;;;5.20;;
79464;SDS011;68932;47.410;8.232;2023-08-24T03:32:14;7.00;;;4.50;;
79464;SDS011;68932;47.410;8.232;2023-08-24T03:34:42;9.00;;;5.00;;
79464;SDS011;68932;47.410;8.232;2023-08-24T03:37:10;10.40;;;5.10;;
79464;SDS011;68932;47.410;8.232;2023-08-24T03:39:39;7.80;;;5.00;;
79464;SDS011;68932;47.410;8.232;2023-08-24T03:42:07;8.50;;;5.70;;
79464;SDS011;68932;47.410;8.232;2023-08-24T03:44:36;6.00;;;5.30;;
79464;SDS011;68932;47.410;8.232;2023-08-24T03:47:04;6.50;;;5.40;;
79464;SDS011;68932;47.410;8.232;2023-08-24T03:49:33;6.10;;;5.20;;
79464;SDS011;68932;47.410;8.232;2023-08-24T03:52:01;7.50;;;5.30;;
79464;SDS011;68932;47.410;8.232;2023-08-24T03:54:30;7.60;;;5.00;;
79464;SDS011;68932;47.410;8.232;2023-08-24T03:56:58;7.40;;;5.30;;
79464;SDS011;68932;47.410;8.232;2023-08-24T03:59:26;5.80;;;5.20;;
79464;SDS011;68932;47.410;8.232;2023-08-24T04:01:54;6.50;;;5.60;;
79464;SDS011;68932;47.410;8.232;2023-08-24T04:04:23;8.30;;;5.50;;
79464;SDS011;68932;47.410;8.232;2023-08-24T04:06:51;7.40;;;5.40;;
79464;SDS011;68932;47.410;8.232;2023-08-24T04:09:19;8.60;;;5.60;;
79464;SDS011;68932;47.410;8.232;2023-08-24T04:11:47;7.10;;;5.10;;
79464;SDS011;68932;47.410;8.232;2023-08-24T04:14:16;6.40;;;5.40;;
79464;SDS011;68932;47.410;8.232;2023-08-24T04:16:44;7.40;;;5.20;;
79464;SDS011;68932;47.410;8.232;2023-08-24T04:19:12;7.10;;;5.40;;
79464;SDS011;68932;47.410;8.232;2023-08-24T04:21:40;6.40;;;5.20;;
79464;SDS011;68932;47.410;8.232;2023-08-24T04:24:09;7.10;;;5.50;;
79464;SDS011;68932;47.410;8.232;2023-08-24T04:26:37;6.10;;;5.50;;
79464;SDS011;68932;47.410;8.232;2023-08-24T04:29:05;7.70;;;5.20;;
79464;SDS011;68932;47.410;8.232;2023-08-24T04:31:34;7.60;;;5.10;;
79464;SDS011;68932;47.410;8.232;2023-08-24T04:34:02;6.40;;;5.20;;
79464;SDS011;68932;47.410;8.232;2023-08-24T04:36:30;7.50;;;5.70;;
79464;SDS011;68932;47.410;8.232;2023-08-24T04:38:59;7.10;;;5.60;;
79464;SDS011;68932;47.410;8.232;2023-08-24T04:41:27;7.30;;;5.40;;
79464;SDS011;68932;47.410;8.232;2023-08-24T04:43:55;9.70;;;6.30;;
79464;SDS011;68932;47.410;8.232;2023-08-24T04:46:24;7.90;;;5.80;;
79464;SDS011;68932;47.410;8.232;2023-08-24T04:48:52;6.60;;;5.60;;
79464;SDS011;68932;47.410;8.232;2023-08-24T04:51:21;7.70;;;5.80;;
79464;SDS011;68932;47.410;8.232;2023-08-24T04:53:49;8.20;;;5.40;;
79464;SDS011;68932;47.410;8.232;2023-08-24T04:56:17;7.90;;;5.60;;
79464;SDS011;68932;47.410;8.232;2023-08-24T04:58:53;8.70;;;5.80;;
79464;SDS011;68932;47.410;8.232;2023-08-24T05:01:22;8.10;;;5.20;;
79464;SDS011;68932;47.410;8.232;2023-08-24T05:03:50;7.80;;;6.10;;
79464;SDS011;68932;47.410;8.232;2023-08-24T05:06:19;6.80;;;5.00;;
79464;SDS011;68932;47.410;8.232;2023-08-24T05:08:48;6.80;;;5.60;;
79464;SDS011;68932;47.410;8.232;2023-08-24T05:11:18;8.90;;;5.80;;
79464;SDS011;68932;47.410;8.232;2023-08-24T05:13:48;7.60;;;5.80;;
79464;SDS011;68932;47.410;8.232;2023-08-24T05:16:16;5.90;;;5.30;;
79464;SDS011;68932;47.410;8.232;2023-08-24T05:18:45;5.70;;;5.10;;
79464;SDS011;68932;47.410;8.232;2023-08-24T05:21:13;6.40;;;5.20;;
79464;SDS011;68932;47.410;8.232;2023-08-24T05:23:42;6.00;;;5.30;;
79464;SDS011;68932;47.410;8.232;2023-08-24T05:26:10;6.60;;;5.60;;
79464;SDS011;68932;47.410;8.232;2023-08-24T05:28:38;6.40;;;5.50;;
79464;SDS011;68932;47.410;8.232;2023-08-24T05:31:06;7.70;;;5.30;;
79464;SDS011;68932;47.410;8.232;2023-08-24T05:33:34;6.30;;;5.70;;
79464;SDS011;68932;47.410;8.232;2023-08-24T05:36:03;6.80;;;5.50;;
79464;SDS011;68932;47.410;8.232;2023-08-24T05:38:32;7.90;;;5.30;;
79464;SDS011;68932;47.410;8.232;2023-08-24T05:41:00;6.60;;;5.50;;
79464;SDS011;68932;47.410;8.232;2023-08-24T05:43:28;10.20;;;5.70;;
79464;SDS011;68932;47.410;8.232;2023-08-24T05:45:57;7.80;;;5.80;;
79464;SDS011;68932;47.410;8.232;2023-08-24T05:48:25;7.20;;;5.80;;
79464;SDS011;68932;47.410;8.232;2023-08-24T05:50:53;7.60;;;5.30;;
79464;SDS011;68932;47.410;8.232;2023-08-24T05:53:21;5.80;;;5.20;;
79464;SDS011;68932;47.410;8.232;2023-08-24T05:55:50;6.30;;;5.40;;
79464;SDS011;68932;47.410;8.232;2023-08-24T05:58:18;7.80;;;5.60;;
79464;SDS011;68932;47.410;8.232;2023-08-24T06:00:46;8.30;;;5.20;;
79464;SDS011;68932;47.410;8.232;2023-08-24T06:03:14;7.30;;;5.70;;
79464;SDS011;68932;47.410;8.232;2023-08-24T06:05:43;7.40;;;5.80;;
79464;SDS011;68932;47.410;8.232;2023-08-24T06:08:11;8.80;;;6.10;;
79464;SDS011;68932;47.410;8.232;2023-08-24T06:10:39;9.00;;;5.40;;
79464;SDS011;68932;47.410;8.232;2023-08-24T06:13:07;8.00;;;6.30;;
79464;SDS011;68932;47.410;8.232;2023-08-24T06:15:35;9.30;;;5.90;;
79464;SDS011;68932;47.410;8.232;2023-08-24T06:18:04;9.50;;;6.10;;
79464;SDS011;68932;47.410;8.232;2023-08-24T06:20:32;12.10;;;6.40;;
79464;SDS011;68932;47.410;8.232;2023-08-24T06:23:02;8.90;;;6.10;;
79464;SDS011;68932;47.410;8.232;2023-08-24T06:25:30;8.10;;;6.00;;
79464;SDS011;68932;47.410;8.232;2023-08-24T06:27:59;8.50;;;6.10;;
79464;SDS011;68932;47.410;8.232;2023-08-24T06:30:27;7.10;;;5.80;;
79464;SDS011;68932;47.410;8.232;2023-08-24T06:32:56;7.70;;;6.40;;
79464;SDS011;68932;47.410;8.232;2023-08-24T06:35:24;6.60;;;5.60;;
79464;SDS011;68932;47.410;8.232;2023-08-24T06:37:52;10.30;;;6.30;;
79464;SDS011;68932;47.410;8.232;2023-08-24T06:40:20;9.40;;;6.70;;
79464;SDS011;68932;47.410;8.232;2023-08-24T06:42:49;7.80;;;5.80;;
79464;SDS011;68932;47.410;8.232;2023-08-24T06:45:17;10.20;;;5.70;;
79464;SDS011;68932;47.410;8.232;2023-08-24T06:47:45;8.70;;;6.00;;
79464;SDS011;68932;47.410;8.232;2023-08-24T06:50:14;6.80;;;5.80;;
79464;SDS011;68932;47.410;8.232;2023-08-24T06:52:43;10.30;;;6.40;;
79464;SDS011;68932;47.410;8.232;2023-08-24T06:55:11;10.30;;;6.30;;
79464;SDS011;68932;47.410;8.232;2023-08-24T06:57:39;11.00;;;6.50;;
79464;SDS011;68932;47.410;8.232;2023-08-24T07:00:08;10.00;;;5.80;;
79464;SDS011;68932;47.410;8.232;2023-08-24T07:02:38;8.00;;;6.20;;
79464;SDS011;68932;47.410;8.232;2023-08-24T07:05:07;9.10;;;5.90;;
79464;SDS011;68932;47.410;8.232;2023-08-24T07:07:36;7.40;;;5.90;;
79464;SDS011;68932;47.410;8.232;2023-08-24T07:10:05;7.60;;;6.60;;
79464;SDS011;68932;47.410;8.232;2023-08-24T07:12:34;7.40;;;5.90;;
79464;SDS011;68932;47.410;8.232;2023-08-24T07:15:03;11.30;;;6.70;;
79464;SDS011;68932;47.410;8.232;2023-08-24T07:17:33;9.70;;;5.90;;
79464;SDS011;68932;47.410;8.232;2023-08-24T07:20:02;10.40;;;5.80;;
79464;SDS011;68932;47.410;8.232;2023-08-24T07:22:31;10.20;;;6.60;;
79464;SDS011;68932;47.410;8.232;2023-08-24T07:24:59;7.10;;;6.00;;
79464;SDS011;68932;47.410;8.232;2023-08-24T07:27:28;7.50;;;6.70;;
79464;SDS011;68932;47.410;8.232;2023-08-24T07:29:56;9.90;;;6.70;;
79464;SDS011;68932;47.410;8.232;2023-08-24T07:32:25;8.60;;;6.20;;
79464;SDS011;68932;47.410;8.232;2023-08-24T07:34:54;9.50;;;5.70;;
79464;SDS011;68932;47.410;8.232;2023-08-24T07:37:22;11.10;;;6.20;;
79464;SDS011;68932;47.410;8.232;2023-08-24T07:39:50;6.60;;;5.90;;
79464;SDS011;68932;47.410;8.232;2023-08-24T07:42:20;6.80;;;5.80;;
79464;SDS011;68932;47.410;8.232;2023-08-24T07:44:48;8.50;;;5.70;;
79464;SDS011;68932;47.410;8.232;2023-08-24T07:47:17;6.80;;;5.60;;
79464;SDS011;68932;47.410;8.232;2023-08-24T07:49:45;12.60;;;5.70;;
79464;SDS011;68932;47.410;8.232;2023-08-24T07:52:13;13.30;;;6.50;;
79464;SDS011;68932;47.410;8.232;2023-08-24T07:54:42;11.30;;;6.70;;
79464;SDS011;68932;47.410;8.232;2023-08-24T07:57:10;6.60;;;5.50;;
79464;SDS011;68932;47.410;8.232;2023-08-24T07:59:38;9.20;;;6.10;;
79464;SDS011;68932;47.410;8.232;2023-08-24T08:02:06;9.00;;;5.50;;
79464;SDS011;68932;47.410;8.232;2023-08-24T08:04:35;8.20;;;6.20;;
79464;SDS011;68932;47.410;8.232;2023-08-24T08:07:03;8.00;;;6.20;;
79464;SDS011;68932;47.410;8.232;2023-08-24T08:09:31;11.70;;;6.70;;
79464;SDS011;68932;47.410;8.232;2023-08-24T08:12:00;8.20;;;6.20;;
79464;SDS011;68932;47.410;8.232;2023-08-24T08:14:28;12.60;;;6.90;;
79464;SDS011;68932;47.410;8.232;2023-08-24T08:16:57;7.40;;;5.80;;
79464;SDS011;68932;47.410;8.232;2023-08-24T08:19:25;7.40;;;6.00;;
79464;SDS011;68932;47.410;8.232;2023-08-24T08:21:53;7.90;;;6.70;;
79464;SDS011;68932;47.410;8.232;2023-08-24T08:24:22;7.50;;;5.70;;
79464;SDS011;68932;47.410;8.232;2023-08-24T08:26:50;7.00;;;5.70;;
79464;SDS011;68932;47.410;8.232;2023-08-24T08:29:18;7.50;;;6.30;;
79464;SDS011;68932;47.410;8.232;2023-08-24T08:31:46;9.40;;;6.40;;
79464;SDS011;68932;47.410;8.232;2023-08-24T08:34:14;9.90;;;6.30;;
79464;SDS011;68932;47.410;8.232;2023-08-24T08:36:43;9.10;;;6.60;;
79464;SDS011;68932;47.410;8.232;2023-08-24T08:39:11;8.20;;;6.70;;
79464;SDS011;68932;47.410;8.232;2023-08-24T08:41:41;9.70;;;6.40;;
79464;SDS011;68932;47.410;8.232;2023-08-24T08:44:12;7.70;;;6.20;;
79464;SDS011;68932;47.410;8.232;2023-08-24T08:46:42;7.30;;;6.20;;
79464;SDS011;68932;47.410;8.232;2023-08-24T08:49:11;7.80;;;5.90;;
79464;SDS011;68932;47.410;8.232;2023-08-24T08:51:42;10.10;;;7.10;;
79464;SDS011;68932;47.410;8.232;2023-08-24T08:54:10;12.20;;;6.70;;
79464;SDS011;68932;47.410;8.232;2023-08-24T08:56:39;8.60;;;6.10;;
79464;SDS011;68932;47.410;8.232;2023-08-24T08:59:08;9.40;;;6.70;;
79464;SDS011;68932;47.410;8.232;2023-08-24T09:01:38;10.30;;;7.30;;
79464;SDS011;68932;47.410;8.232;2023-08-24T09:04:06;7.70;;;5.80;;
79464;SDS011;68932;47.410;8.232;2023-08-24T09:06:35;10.20;;;6.80;;
79464;SDS011;68932;47.410;8.232;2023-08-24T09:09:04;11.10;;;6.30;;
79464;SDS011;68932;47.410;8.232;2023-08-24T09:11:33;9.90;;;6.60;;
79464;SDS011;68932;47.410;8.232;2023-08-24T09:14:02;11.00;;;6.40;;
79464;SDS011;68932;47.410;8.232;2023-08-24T09:16:31;10.10;;;6.40;;
79464;SDS011;68932;47.410;8.232;2023-08-24T09:19:01;8.20;;;6.30;;
79464;SDS011;68932;47.410;8.232;2023-08-24T09:21:34;9.70;;;6.40;;
79464;SDS011;68932;47.410;8.232;2023-08-24T09:24:06;10.50;;;6.50;;
79464;SDS011;68932;47.410;8.232;2023-08-24T09:26:35;10.20;;;6.40;;
79464;SDS011;68932;47.410;8.232;2023-08-24T09:29:11;11.30;;;6.90;;
79464;SDS011;68932;47.410;8.232;2023-08-24T09:31:41;10.50;;;6.80;;
79464;SDS011;68932;47.410;8.232;2023-08-24T09:34:09;9.70;;;6.80;;
79464;SDS011;68932;47.410;8.232;2023-08-24T09:36:38;11.60;;;7.00;;
79464;SDS011;68932;47.410;8.232;2023-08-24T09:39:06;10.40;;;6.10;;
79464;SDS011;68932;47.410;8.232;2023-08-24T09:41:38;9.20;;;6.10;;
79464;SDS011;68932;47.410;8.232;2023-08-24T09:44:08;7.40;;;5.90;;
79464;SDS011;68932;47.410;8.232;2023-08-24T09:46:36;11.90;;;6.70;;
79464;SDS011;68932;47.410;8.232;2023-08-24T09:49:05;11.40;;;6.70;;
79464;SDS011;68932;47.410;8.232;2023-08-24T09:51:35;9.10;;;6.10;;
79464;SDS011;68932;47.410;8.232;2023-08-24T09:54:05;10.00;;;6.20;;
79464;SDS011;68932;47.410;8.232;2023-08-24T09:56:35;9.90;;;6.20;;
79464;SDS011;68932;47.410;8.232;2023-08-24T09:59:07;8.80;;;6.10;;
79464;SDS011;68932;47.410;8.232;2023-08-24T10:01:39;8.00;;;6.10;;
79464;SDS011;68932;47.410;8.232;2023-08-24T10:04:10;9.70;;;6.20;;
79464;SDS011;68932;47.410;8.232;2023-08-24T10:06:39;11.80;;;5.50;;
79464;SDS011;68932;47.410;8.232;2023-08-24T10:09:10;11.60;;;6.60;;
79464;SDS011;68932;47.410;8.232;2023-08-24T10:11:45;9.00;;;5.90;;
79464;SDS011;68932;47.410;8.232;2023-08-24T10:14:18;9.10;;;5.90;;
79464;SDS011;68932;47.410;8.232;2023-08-24T10:16:50;9.60;;;6.40;;
79464;SDS011;68932;47.410;8.232;2023-08-24T10:19:19;8.00;;;6.50;;
79464;SDS011;68932;47.410;8.232;2023-08-24T10:21:49;9.50;;;6.00;;
79464;SDS011;68932;47.410;8.232;2023-08-24T10:24:18;8.00;;;5.90;;
79464;SDS011;68932;47.410;8.232;2023-08-24T10:26:47;10.10;;;5.50;;
79464;SDS011;68932;47.410;8.232;2023-08-24T10:29:17;8.20;;;6.20;;
79464;SDS011;68932;47.410;8.232;2023-08-24T10:31:47;8.60;;;5.30;;
79464;SDS011;68932;47.410;8.232;2023-08-24T10:34:17;8.20;;;5.50;;
79464;SDS011;68932;47.410;8.232;2023-08-24T10:36:46;8.80;;;6.60;;
79464;SDS011;68932;47.410;8.232;2023-08-24T10:39:15;10.30;;;5.80;;
79464;SDS011;68932;47.410;8.232;2023-08-24T10:41:47;9.30;;;5.90;;
79464;SDS011;68932;47.410;8.232;2023-08-24T10:44:23;9.90;;;6.30;;
79464;SDS011;68932;47.410;8.232;2023-08-24T10:47:07;8.80;;;5.40;;
79464;SDS011;68932;47.410;8.232;2023-08-24T10:49:39;9.70;;;6.00;;
79464;SDS011;68932;47.410;8.232;2023-08-24T10:52:21;12.90;;;6.00;;
79464;SDS011;68932;47.410;8.232;2023-08-24T10:54:50;8.50;;;5.30;;
79464;SDS011;68932;47.410;8.232;2023-08-24T10:57:21;9.10;;;6.00;;
79464;SDS011;68932;47.410;8.232;2023-08-24T11:00:01;9.10;;;5.20;;
79464;SDS011;68932;47.410;8.232;2023-08-24T11:02:33;12.10;;;6.20;;
79464;SDS011;68932;47.410;8.232;2023-08-24T11:05:16;11.60;;;5.40;;
79464;SDS011;68932;47.410;8.232;2023-08-24T11:07:50;9.60;;;6.30;;
79464;SDS011;68932;47.410;8.232;2023-08-24T11:10:20;10.10;;;6.00;;
79464;SDS011;68932;47.410;8.232;2023-08-24T11:13:05;14.00;;;5.10;;
79464;SDS011;68932;47.410;8.232;2023-08-24T11:15:39;12.40;;;5.20;;
79464;SDS011;68932;47.410;8.232;2023-08-24T11:18:12;10.20;;;5.40;;
79464;SDS011;68932;47.410;8.232;2023-08-24T11:20:54;9.00;;;5.90;;
79464;SDS011;68932;47.410;8.232;2023-08-24T11:23:26;10.80;;;6.00;;
79464;SDS011;68932;47.410;8.232;2023-08-24T11:25:55;10.90;;;5.00;;
79464;SDS011;68932;47.410;8.232;2023-08-24T11:28:26;10.70;;;5.50;;
79464;SDS011;68932;47.410;8.232;2023-08-24T11:30:55;9.00;;;5.30;;
79464;SDS011;68932;47.410;8.232;2023-08-24T11:33:28;11.20;;;5.40;;
79464;SDS011;68932;47.410;8.232;2023-08-24T11:35:58;10.90;;;5.40;;
79464;SDS011;68932;47.410;8.232;2023-08-24T11:38:36;12.60;;;5.30;;
79464;SDS011;68932;47.410;8.232;2023-08-24T11:41:11;11.40;;;5.80;;
79464;SDS011;68932;47.410;8.232;2023-08-24T11:43:41;9.20;;;5.10;;
79464;SDS011;68932;47.410;8.232;2023-08-24T11:46:10;13.00;;;5.60;;
79464;SDS011;68932;47.410;8.232;2023-08-24T11:48:39;10.30;;;5.40;;
79464;SDS011;68932;47.410;8.232;2023-08-24T11:51:09;10.30;;;5.60;;
79464;SDS011;68932;47.410;8.232;2023-08-24T11:53:39;11.20;;;4.90;;
79464;SDS011;68932;47.410;8.232;2023-08-24T11:56:09;10.50;;;5.40;;
79464;SDS011;68932;47.410;8.232;2023-08-24T11:58:38;9.40;;;4.60;;
79464;SDS011;68932;47.410;8.232;2023-08-24T12:01:07;11.50;;;4.90;;
79464;SDS011;68932;47.410;8.232;2023-08-24T12:03:36;9.30;;;5.10;;
79464;SDS011;68932;47.410;8.232;2023-08-24T12:06:10;9.60;;;5.00;;
79464;SDS011;68932;47.410;8.232;2023-08-24T12:08:40;13.20;;;5.00;;
79464;SDS011;68932;47.410;8.232;2023-08-24T12:11:12;8.40;;;5.10;;
79464;SDS011;68932;47.410;8.232;2023-08-24T12:13:46;8.70;;;5.00;;
79464;SDS011;68932;47.410;8.232;2023-08-24T12:16:16;12.00;;;5.30;;
79464;SDS011;68932;47.410;8.232;2023-08-24T12:18:49;11.20;;;4.90;;
79464;SDS011;68932;47.410;8.232;2023-08-24T12:21:19;11.90;;;5.60;;
79464;SDS011;68932;47.410;8.232;2023-08-24T12:23:58;8.30;;;4.60;;
79464;SDS011;68932;47.410;8.232;2023-08-24T12:26:28;9.60;;;4.30;;
79464;SDS011;68932;47.410;8.232;2023-08-24T12:28:59;12.00;;;4.50;;
79464;SDS011;68932;47.410;8.232;2023-08-24T12:31:29;9.10;;;4.30;;
79464;SDS011;68932;47.410;8.232;2023-08-24T12:34:02;10.80;;;4.70;;
79464;SDS011;68932;47.410;8.232;2023-08-24T12:36:31;10.60;;;4.20;;
79464;SDS011;68932;47.410;8.232;2023-08-24T12:39:00;15.00;;;4.90;;
79464;SDS011;68932;47.410;8.232;2023-08-24T12:41:28;9.50;;;4.10;;
79464;SDS011;68932;47.410;8.232;2023-08-24T12:43:57;10.60;;;4.20;;
79464;SDS011;68932;47.410;8.232;2023-08-24T12:46:25;8.70;;;4.20;;
79464;SDS011;68932;47.410;8.232;2023-08-24T12:48:54;10.10;;;4.80;;
79464;SDS011;68932;47.410;8.232;2023-08-24T12:51:22;18.90;;;4.70;;
79464;SDS011;68932;47.410;8.232;2023-08-24T12:53:51;12.40;;;5.00;;
79464;SDS011;68932;47.410;8.232;2023-08-24T12:56:19;10.00;;;4.50;;
79464;SDS011;68932;47.410;8.232;2023-08-24T12:58:48;10.50;;;4.40;;
79464;SDS011;68932;47.410;8.232;2023-08-24T13:01:16;12.60;;;4.10;;
79464;SDS011;68932;47.410;8.232;2023-08-24T13:03:44;7.20;;;4.00;;
79464;SDS011;68932;47.410;8.232;2023-08-24T13:06:13;10.00;;;5.10;;
79464;SDS011;68932;47.410;8.232;2023-08-24T13:08:41;13.80;;;4.60;;
79464;SDS011;68932;47.410;8.232;2023-08-24T13:11:09;13.60;;;4.80;;
79464;SDS011;68932;47.410;8.232;2023-08-24T13:13:38;9.90;;;4.60;;
79464;SDS011;68932;47.410;8.232;2023-08-24T13:16:06;12.30;;;4.70;;
79464;SDS011;68932;47.410;8.232;2023-08-24T13:18:34;13.60;;;4.60;;
79464;SDS011;68932;47.410;8.232;2023-08-24T13:21:02;10.20;;;4.00;;
79464;SDS011;68932;47.410;8.232;2023-08-24T13:23:31;10.60;;;4.30;;
79464;SDS011;68932;47.410;8.232;2023-08-24T13:25:59;8.00;;;4.40;;
79464;SDS011;68932;47.410;8.232;2023-08-24T13:28:28;13.30;;;4.20;;
79464;SDS011;68932;47.410;8.232;2023-08-24T13:30:56;15.70;;;4.40;;
79464;SDS011;68932;47.410;8.232;2023-08-24T13:33:24;11.60;;;4.20;;
79464;SDS011;68932;47.410;8.232;2023-08-24T13:35:52;9.20;;;4.60;;
79464;SDS011;68932;47.410;8.232;2023-08-24T13:38:21;7.70;;;4.70;;
79464;SDS011;68932;47.410;8.232;2023-08-24T13:40:49;10.20;;;4.20;;
79464;SDS011;68932;47.410;8.232;2023-08-24T13:43:17;9.30;;;4.10;;
79464;SDS011;68932;47.410;8.232;2023-08-24T13:45:46;11.20;;;3.70;;
79464;SDS011;68932;47.410;8.232;2023-08-24T13:48:14;9.90;;;3.70;;
79464;SDS011;68932;47.410;8.232;2023-08-24T13:50:48;8.70;;;3.80;;
79464;SDS011;68932;47.410;8.232;2023-08-24T13:53:17;9.40;;;4.00;;
79464;SDS011;68932;47.410;8.232;2023-08-24T13:55:46;14.20;;;4.40;;
79464;SDS011;68932;47.410;8.232;2023-08-24T13:58:14;11.50;;;4.40;;
79464;SDS011;68932;47.410;8.232;2023-08-24T14:00:43;9.20;;;4.20;;
79464;SDS011;68932;47.410;8.232;2023-08-24T14:03:11;8.00;;;3.70;;
79464;SDS011;68932;47.410;8.232;2023-08-24T14:05:40;9.40;;;4.60;;
79464;SDS011;68932;47.410;8.232;2023-08-24T14:08:08;9.10;;;3.90;;
79464;SDS011;68932;47.410;8.232;2023-08-24T14:10:36;10.50;;;3.40;;
79464;SDS011;68932;47.410;8.232;2023-08-24T14:13:05;8.60;;;4.20;;
79464;SDS011;68932;47.410;8.232;2023-08-24T14:15:33;11.20;;;4.50;;
79464;SDS011;68932;47.410;8.232;2023-08-24T14:18:01;10.90;;;4.50;;
79464;SDS011;68932;47.410;8.232;2023-08-24T14:20:30;10.30;;;4.20;;
79464;SDS011;68932;47.410;8.232;2023-08-24T14:22:58;11.40;;;4.50;;
79464;SDS011;68932;47.410;8.232;2023-08-24T14:25:27;8.30;;;4.10;;
79464;SDS011;68932;47.410;8.232;2023-08-24T14:27:55;13.50;;;4.20;;
79464;SDS011;68932;47.410;8.232;2023-08-24T14:30:23;7.20;;;3.80;;
79464;SDS011;68932;47.410;8.232;2023-08-24T14:32:51;8.90;;;3.80;;
79464;SDS011;68932;47.410;8.232;2023-08-24T14:35:20;13.30;;;4.50;;
79464;SDS011;68932;47.410;8.232;2023-08-24T14:37:48;12.40;;;4.40;;
79464;SDS011;68932;47.410;8.232;2023-08-24T14:40:16;10.70;;;3.90;;
79464;SDS011;68932;47.410;8.232;2023-08-24T14:42:44;8.70;;;4.00;;
79464;SDS011;68932;47.410;8.232;2023-08-24T14:45:13;6.60;;;3.80;;
79464;SDS011;68932;47.410;8.232;2023-08-24T14:47:42;8.60;;;3.90;;
79464;SDS011;68932;47.410;8.232;2023-08-24T14:50:11;11.10;;;4.10;;
79464;SDS011;68932;47.410;8.232;2023-08-24T14:52:39;9.10;;;4.30;;
79464;SDS011;68932;47.410;8.232;2023-08-24T14:55:08;14.80;;;3.90;;
79464;SDS011;68932;47.410;8.232;2023-08-24T14:57:37;8.70;;;4.20;;